Time;durP1;ratioP1;P1;durP2;ratioP2;P2;SDS_P1;SDS_P2;PMS_P1;PMS_P2;Temp;Humidity;BMP_temperature;BMP_pressure;BME280_temperature;BME280_humidity;BME280_pressure;Samples;Min_cycle;Max_cycle;Signal;HPM_P1;HPM_P2
2022/10/07 00:01:01;;;;;;;1.77;1.77;;;;;;;14.87;91.35;96548.78;4367119;32;20222;-63
2022/10/07 00:03:27;;;;;;;0.97;0.97;;;;;;;14.89;91.39;96548.50;4383272;32;20185;-63
2022/10/07 00:06:00;;;;;;;2.07;1.73;;;;;;;14.77;91.47;96555.06;4388695;32;20206;-62
2022/10/07 00:08:27;;;;;;;1.90;1.67;;;;;;;14.76;91.58;96545.44;4377350;32;20206;-62
2022/10/07 00:10:54;;;;;;;1.50;1.40;;;;;;;14.80;91.50;96537.66;4370732;32;20179;-62
2022/10/07 00:13:22;;;;;;;2.50;1.80;;;;;;;14.82;91.55;96543.50;4376816;32;20268;-62
2022/10/07 00:15:48;;;;;;;4.00;2.17;;;;;;;14.85;91.50;96548.28;4370119;32;20196;-62
2022/10/07 00:18:14;;;;;;;1.30;1.30;;;;;;;14.73;91.71;96545.25;4384359;32;20225;-62
2022/10/07 00:20:40;;;;;;;1.00;1.00;;;;;;;14.70;92.26;96543.16;4398836;32;20179;-62
2022/10/07 00:23:06;;;;;;;1.33;1.33;;;;;;;14.66;92.27;96534.94;4390025;32;20193;-62
2022/10/07 00:25:35;;;;;;;1.60;1.60;;;;;;;14.68;92.34;96523.94;4364164;32;20181;-63
2022/10/07 00:28:04;;;;;;;2.27;2.17;;;;;;;14.72;91.81;96531.09;4380204;32;20183;-63
2022/10/07 00:30:30;;;;;;;0.97;0.97;;;;;;;14.71;91.94;96531.41;4386909;32;20207;-64
2022/10/07 00:32:56;;;;;;;2.00;1.90;;;;;;;14.74;91.80;96525.47;4367425;32;20197;-62
2022/10/07 00:35:22;;;;;;;2.30;2.20;;;;;;;14.82;91.28;96524.00;4382586;32;20241;-62
2022/10/07 00:37:47;;;;;;;1.33;1.33;;;;;;;14.83;90.85;96518.37;4376527;32;20198;-63
2022/10/07 00:40:14;;;;;;;1.00;1.00;;;;;;;14.78;91.23;96521.12;4397628;32;20200;-63
2022/10/07 00:42:41;;;;;;;1.90;1.67;;;;;;;14.79;91.40;96520.03;4388540;32;20291;-63
2022/10/07 00:45:15;;;;;;;2.07;1.67;;;;;;;14.80;91.10;96508.25;4369706;32;20239;-63
2022/10/07 00:47:48;;;;;;;1.73;1.63;;;;;;;14.76;91.00;96512.59;4375284;32;20207;-62
2022/10/07 00:50:25;;;;;;;1.00;1.00;;;;;;;14.79;90.81;96512.03;4389503;32;20265;-62
2022/10/07 00:52:56;;;;;;;1.73;1.53;;;;;;;14.77;90.38;96506.16;4379078;32;20198;-62
2022/10/07 00:55:26;;;;;;;0.83;0.83;;;;;;;14.71;90.86;96502.00;4398025;32;20175;-62
2022/10/07 00:57:54;;;;;;;1.00;1.00;;;;;;;14.77;90.73;96493.59;4380958;32;20192;-62
2022/10/07 01:00:22;;;;;;;2.83;1.33;;;;;;;14.63;91.04;96494.63;4382204;32;20273;-62
2022/10/07 01:03:02;;;;;;;1.30;1.23;;;;;;;14.64;91.37;96489.00;4390168;32;20188;-63
2022/10/07 01:05:28;;;;;;;1.40;1.40;;;;;;;14.73;90.72;96492.63;4385463;32;20184;-62
2022/10/07 01:07:55;;;;;;;1.50;1.50;;;;;;;14.60;91.37;96482.66;4388362;32;20203;-63
2022/10/07 01:10:21;;;;;;;1.07;1.07;;;;;;;14.64;91.13;96483.66;4399971;32;20184;-62
2022/10/07 01:12:53;;;;;;;1.40;1.40;;;;;;;14.61;91.25;96484.25;4399795;32;20195;-62
2022/10/07 01:15:43;;;;;;;3.13;1.80;;;;;;;14.61;91.33;96475.44;4398360;32;20207;-62
2022/10/07 01:18:19;;;;;;;2.00;1.90;;;;;;;14.71;90.90;96475.28;4390231;32;20258;-63
2022/10/07 01:20:53;;;;;;;1.87;1.40;;;;;;;14.71;90.55;96478.75;4390916;32;20188;-62
2022/10/07 01:23:38;;;;;;;2.93;1.63;;;;;;;14.63;91.07;96474.06;4405133;32;20206;-63
2022/10/07 01:26:06;;;;;;;2.10;1.90;;;;;;;14.75;90.80;96466.41;4405049;32;20189;-63
2022/10/07 01:28:50;;;;;;;0.90;0.90;;;;;;;14.72;91.01;96466.19;4392850;32;20189;-63
2022/10/07 01:31:20;;;;;;;1.03;1.03;;;;;;;14.64;91.34;96464.19;4383709;32;20275;-63
2022/10/07 01:33:48;;;;;;;1.53;1.53;;;;;;;14.64;91.49;96461.50;4399429;32;20185;-62
2022/10/07 01:36:19;;;;;;;1.00;1.00;;;;;;;14.72;90.89;96455.50;4394675;32;20237;-62
2022/10/07 01:38:50;;;;;;;1.33;1.33;;;;;;;14.63;91.29;96457.25;4392597;32;20191;-62
2022/10/07 01:41:18;;;;;;;13.37;2.03;;;;;;;14.73;91.20;96459.78;4415074;32;20184;-63
2022/10/07 01:43:51;;;;;;;1.80;1.70;;;;;;;14.76;90.97;96453.81;4401283;32;20215;-62
2022/10/07 01:46:21;;;;;;;1.50;1.43;;;;;;;14.73;90.93;96449.09;4381383;32;20197;-62
2022/10/07 01:48:50;;;;;;;1.70;0.93;;;;;;;14.70;91.25;96441.66;4402956;32;20187;-63
2022/10/07 01:51:19;;;;;;;2.30;1.27;;;;;;;14.69;91.22;96446.19;4398705;32;20214;-62
2022/10/07 01:53:54;;;;;;;1.40;1.40;;;;;;;14.68;91.33;96443.81;4385231;32;20219;-63
2022/10/07 01:56:35;;;;;;;1.27;1.27;;;;;;;14.61;91.61;96438.03;4403745;32;20316;-62
2022/10/07 01:59:12;;;;;;;1.53;1.43;;;;;;;14.69;91.29;96440.87;4397275;32;20191;-63
2022/10/07 02:01:49;;;;;;;2.30;1.47;;;;;;;14.75;90.85;96441.59;4395160;32;20180;-62
2022/10/07 02:04:38;;;;;;;1.83;1.73;;;;;;;14.59;91.31;96441.00;4420626;32;20177;-62
2022/10/07 02:07:09;;;;;;;1.50;1.40;;;;;;;14.64;91.17;96446.28;4382414;32;20228;-62
2022/10/07 02:10:11;;;;;;;1.37;1.37;;;;;;;14.65;91.29;96441.72;4406907;32;20176;-62
2022/10/07 02:12:39;;;;;;;1.30;1.30;;;;;;;14.75;90.80;96436.25;4366027;32;20179;-62
2022/10/07 02:15:12;;;;;;;2.10;2.00;;;;;;;14.72;90.92;96431.47;4409039;32;20224;-62
2022/10/07 02:17:44;;;;;;;1.53;1.53;;;;;;;14.65;91.13;96431.84;4411929;32;20192;-62
2022/10/07 02:20:13;;;;;;;1.90;1.80;;;;;;;14.60;91.44;96428.44;4393308;32;20272;-62
2022/10/07 02:22:43;;;;;;;1.27;1.27;;;;;;;14.57;91.64;96429.03;4394485;32;20214;-62
2022/10/07 02:25:11;;;;;;;1.43;1.40;;;;;;;14.58;91.72;96430.59;4375689;32;20189;-62
2022/10/07 02:27:37;;;;;;;2.87;1.53;;;;;;;14.57;91.85;96426.34;4402422;32;20195;-62
2022/10/07 02:30:10;;;;;;;7.33;2.63;;;;;;;14.57;91.86;96426.34;4392893;32;20194;-62
2022/10/07 02:32:40;;;;;;;1.37;1.27;;;;;;;14.54;91.98;96424.28;4389254;32;20218;-63
2022/10/07 02:35:13;;;;;;;1.57;1.47;;;;;;;14.47;92.18;96426.53;4403688;32;20188;-63
2022/10/07 02:37:40;;;;;;;1.83;1.73;;;;;;;14.52;92.27;96418.44;4401510;32;20238;-62
2022/10/07 02:40:06;;;;;;;1.63;1.63;;;;;;;14.57;91.98;96419.13;4399683;32;20183;-62
2022/10/07 02:42:43;;;;;;;1.60;1.50;;;;;;;14.48;92.28;96412.88;4405393;32;20222;-62
2022/10/07 02:45:41;;;;;;;0.97;0.97;;;;;;;14.51;92.21;96411.50;4407157;32;20179;-62
2022/10/07 02:48:26;;;;;;;1.93;1.83;;;;;;;14.59;92.17;96410.84;4394834;32;20200;-62
2022/10/07 02:50:59;;;;;;;1.77;1.67;;;;;;;14.43;92.39;96411.09;4394696;32;20205;-62
2022/10/07 02:53:27;;;;;;;2.00;1.90;;;;;;;14.49;92.21;96413.69;4393963;32;20184;-62
2022/10/07 02:55:56;;;;;;;1.43;1.17;;;;;;;14.50;92.00;96401.91;4394702;32;20219;-62
2022/10/07 02:58:25;;;;;;;2.07;1.97;;;;;;;14.42;92.09;96406.81;4411991;32;20192;-62
2022/10/07 03:00:56;;;;;;;1.67;1.67;;;;;;;14.35;92.30;96403.69;4389213;32;20234;-63
2022/10/07 03:03:23;;;;;;;1.30;1.30;;;;;;;14.44;92.04;96399.31;4390003;32;20265;-63
2022/10/07 03:05:49;;;;;;;0.90;0.90;;;;;;;14.47;91.79;96399.81;4398419;32;20183;-63
2022/10/07 03:08:15;;;;;;;5.33;1.60;;;;;;;14.42;92.07;96404.16;4396171;32;20203;-62
2022/10/07 03:10:41;;;;;;;2.77;2.57;;;;;;;14.35;92.20;96400.22;4398243;32;20179;-62
2022/10/07 03:13:06;;;;;;;1.50;1.47;;;;;;;14.28;92.67;96397.16;4392378;32;20188;-63
2022/10/07 03:15:35;;;;;;;0.80;0.80;;;;;;;14.33;92.57;96395.19;4398488;32;20189;-62
2022/10/07 03:18:02;;;;;;;1.30;1.30;;;;;;;14.26;92.57;96396.63;4388678;32;20176;-63
2022/10/07 03:20:29;;;;;;;1.27;1.27;;;;;;;14.22;92.74;96392.97;4405979;32;20188;-63
2022/10/07 03:22:54;;;;;;;1.40;1.30;;;;;;;14.24;92.78;96399.59;4410057;32;20190;-63
2022/10/07 03:25:20;;;;;;;3.90;1.33;;;;;;;14.21;92.72;96388.69;4386835;32;20290;-63
2022/10/07 03:27:47;;;;;;;1.57;1.50;;;;;;;14.17;92.90;96393.03;4391501;32;20226;-62
2022/10/07 03:30:12;;;;;;;1.20;1.20;;;;;;;14.11;92.79;96387.00;4414119;32;20198;-63
2022/10/07 03:32:40;;;;;;;1.20;1.20;;;;;;;14.11;92.94;96389.66;4394600;32;20259;-63
2022/10/07 03:35:06;;;;;;;1.37;1.37;;;;;;;14.10;93.01;96393.41;4397517;32;20224;-62
2022/10/07 03:37:31;;;;;;;1.60;1.50;;;;;;;13.89;93.89;96382.22;4407284;32;20210;-62
2022/10/07 03:39:56;;;;;;;1.67;1.67;;;;;;;13.92;93.50;96380.84;4415019;32;20188;-62
2022/10/07 03:42:22;;;;;;;1.33;1.33;;;;;;;13.77;94.26;96381.84;4395738;32;20198;-63
2022/10/07 03:44:48;;;;;;;1.17;1.17;;;;;;;13.80;93.94;96383.13;4414268;32;20188;-62
2022/10/07 03:47:20;;;;;;;1.50;1.50;;;;;;;13.83;93.67;96378.03;4396011;32;20203;-62
2022/10/07 03:49:46;;;;;;;1.63;1.53;;;;;;;13.70;93.86;96381.41;4402686;32;20198;-62
2022/10/07 03:52:11;;;;;;;1.10;1.10;;;;;;;13.68;94.16;96381.69;4405229;32;20208;-62
2022/10/07 03:54:36;;;;;;;1.67;1.67;;;;;;;13.59;94.41;96383.41;4412191;32;20207;-63
2022/10/07 03:57:02;;;;;;;1.40;1.40;;;;;;;13.69;94.14;96385.16;4395963;32;20219;-63
2022/10/07 03:59:27;;;;;;;1.57;1.57;;;;;;;13.55;94.64;96385.03;4405624;32;20198;-62
2022/10/07 04:01:53;;;;;;;1.20;1.20;;;;;;;13.52;94.86;96382.94;4397476;32;20230;-62
2022/10/07 04:04:19;;;;;;;2.50;2.03;;;;;;;13.37;95.24;96378.59;4393586;32;20210;-63
2022/10/07 04:06:44;;;;;;;2.67;2.47;;;;;;;13.44;95.10;96380.94;4390800;32;20193;-62
2022/10/07 04:09:13;;;;;;;1.67;1.57;;;;;;;13.34;95.56;96375.69;4395374;32;20235;-62
2022/10/07 04:11:40;;;;;;;1.70;1.70;;;;;;;13.45;95.16;96374.53;4402580;32;20191;-62
2022/10/07 04:14:06;;;;;;;4.07;1.73;;;;;;;13.43;95.15;96374.00;4391467;32;20249;-63
2022/10/07 04:16:32;;;;;;;1.43;1.43;;;;;;;13.39;95.35;96372.97;4385882;32;20180;-63
2022/10/07 04:18:58;;;;;;;1.13;1.13;;;;;;;13.44;94.86;96370.25;4397289;32;20210;-62
2022/10/07 04:21:23;;;;;;;1.83;1.73;;;;;;;13.36;95.38;96368.22;4398622;32;20187;-62
2022/10/07 04:23:49;;;;;;;2.90;1.43;;;;;;;13.36;95.27;96371.69;4391604;32;20370;-63
2022/10/07 04:26:14;;;;;;;3.60;1.87;;;;;;;13.27;95.29;96369.94;4401945;32;20180;-62
2022/10/07 04:28:40;;;;;;;2.13;2.13;;;;;;;13.35;95.30;96363.97;4394766;32;20258;-62
2022/10/07 04:31:07;;;;;;;1.30;1.20;;;;;;;13.31;95.07;96366.41;4400957;32;20179;-62
2022/10/07 04:33:33;;;;;;;1.90;1.80;;;;;;;13.33;95.13;96366.91;4394678;32;20172;-62
2022/10/07 04:36:10;;;;;;;2.73;2.10;;;;;;;13.28;95.46;96351.00;4412396;32;20192;-62
2022/10/07 04:38:35;;;;;;;1.60;1.50;;;;;;;13.08;95.91;96344.00;4396283;32;20216;-62
2022/10/07 04:41:05;;;;;;;1.00;1.00;;;;;;;13.05;96.52;96346.44;4394898;32;20200;-63
2022/10/07 04:43:32;;;;;;;1.33;1.33;;;;;;;12.92;96.87;96337.22;4382705;32;20179;-63
2022/10/07 04:46:01;;;;;;;1.80;1.70;;;;;;;12.72;97.79;96338.22;4398718;32;20180;-62
2022/10/07 04:48:27;;;;;;;1.80;1.70;;;;;;;12.87;96.82;96342.63;4395796;32;20210;-62
2022/10/07 04:50:52;;;;;;;1.03;1.03;;;;;;;12.77;97.19;96336.59;4405315;32;20192;-62
2022/10/07 04:53:18;;;;;;;1.53;1.53;;;;;;;12.93;96.13;96333.50;4381353;32;20193;-62
2022/10/07 04:55:49;;;;;;;1.53;1.53;;;;;;;12.79;96.27;96337.13;4395498;32;20260;-62
2022/10/07 04:58:15;;;;;;;1.53;1.50;;;;;;;12.82;95.96;96334.69;4407982;32;20215;-63
2022/10/07 05:00:43;;;;;;;1.80;1.73;;;;;;;12.85;95.96;96336.78;4384601;32;20220;-63
2022/10/07 05:03:08;;;;;;;1.00;1.00;;;;;;;12.84;95.80;96339.72;4398492;32;20251;-63
2022/10/07 05:05:34;;;;;;;3.80;3.00;;;;;;;12.90;95.19;96338.59;4394298;32;20203;-62
2022/10/07 05:07:59;;;;;;;4.87;3.23;;;;;;;12.86;95.42;96343.72;4391553;32;20245;-62
2022/10/07 05:10:24;;;;;;;3.47;3.27;;;;;;;12.78;95.88;96335.53;4412924;32;20179;-62
2022/10/07 05:12:50;;;;;;;3.00;2.80;;;;;;;12.98;95.50;96345.97;4401009;32;20221;-62
2022/10/07 05:15:15;;;;;;;3.57;3.27;;;;;;;12.89;95.97;96337.78;4397674;32;20275;-63
2022/10/07 05:17:41;;;;;;;7.17;4.40;;;;;;;12.92;96.05;96341.75;4392362;32;20183;-62
2022/10/07 05:20:11;;;;;;;4.43;4.03;;;;;;;12.68;97.06;96341.72;4392763;32;20263;-63
2022/10/07 05:22:37;;;;;;;4.07;3.83;;;;;;;12.50;98.92;96347.75;4392817;32;20211;-62
2022/10/07 05:25:02;;;;;;;4.03;3.73;;;;;;;12.53;99.27;96339.22;4392265;32;20188;-63
2022/10/07 05:27:27;;;;;;;6.53;4.60;;;;;;;12.50;99.54;96342.44;4413582;32;20187;-63
2022/10/07 05:29:53;;;;;;;5.50;5.10;;;;;;;12.62;99.52;96338.34;4397040;32;20184;-63
2022/10/07 05:32:18;;;;;;;4.83;4.47;;;;;;;12.65;99.17;96337.78;4398003;32;20259;-63
2022/10/07 05:34:43;;;;;;;5.33;4.90;;;;;;;12.61;99.52;96335.97;4396214;32;20195;-63
2022/10/07 05:37:10;;;;;;;3.37;3.17;;;;;;;12.60;99.46;96335.16;4383266;32;20216;-63
2022/10/07 05:39:36;;;;;;;4.87;4.50;;;;;;;12.27;100.00;96335.97;4381765;32;20210;-63
2022/10/07 05:42:01;;;;;;;6.03;4.47;;;;;;;12.34;100.00;96334.59;4393181;32;20189;-63
2022/10/07 05:44:28;;;;;;;4.47;4.17;;;;;;;12.31;100.00;96340.47;4399581;32;20254;-63
2022/10/07 05:46:53;;;;;;;4.87;4.40;;;;;;;12.15;100.00;96335.56;4392718;32;20196;-63
2022/10/07 05:49:19;;;;;;;5.80;4.83;;;;;;;12.31;100.00;96332.47;4395303;32;20285;-63
2022/10/07 05:51:44;;;;;;;5.67;5.17;;;;;;;12.24;100.00;96332.03;4395427;32;20229;-63
2022/10/07 05:54:10;;;;;;;4.07;3.77;;;;;;;12.39;100.00;96323.91;4393458;32;20251;-63
2022/10/07 05:56:35;;;;;;;4.30;4.03;;;;;;;12.46;100.00;96331.59;4413691;32;20258;-63
2022/10/07 05:59:02;;;;;;;5.60;5.20;;;;;;;12.38;100.00;96327.66;4400616;32;20188;-63
2022/10/07 06:01:27;;;;;;;5.90;5.20;;;;;;;12.64;100.00;96324.75;4397218;32;20180;-62
2022/10/07 06:03:56;;;;;;;5.30;4.80;;;;;;;12.74;100.00;96329.97;4396088;32;20195;-62
2022/10/07 06:06:21;;;;;;;4.27;4.00;;;;;;;12.84;99.52;96332.53;4393459;32;20188;-62
2022/10/07 06:08:47;;;;;;;4.87;4.57;;;;;;;12.94;99.20;96327.09;4398443;32;20184;-63
2022/10/07 06:13:59;;;;;;;4.50;4.30;;;;;;;12.99;98.10;96337.69;4398567;32;20226;-63
2022/10/07 06:16:25;;;;;;;4.37;4.07;;;;;;;12.98;97.76;96335.31;4396209;32;20188;-63
2022/10/07 06:18:51;;;;;;;2.73;2.63;;;;;;;12.93;98.12;96335.37;4396370;32;20306;-63
2022/10/07 06:21:26;;;;;;;3.77;3.47;;;;;;;13.11;97.31;96342.63;4396544;32;20189;-63
2022/10/07 06:23:56;;;;;;;4.87;3.53;;;;;;;13.20;96.71;96340.97;4389831;32;20180;-63
2022/10/07 06:26:22;;;;;;;13.03;3.23;;;;;;;13.22;96.04;96346.81;4403899;32;20220;-56
2022/10/07 06:28:48;;;;;;;5.67;3.20;;;;;;;14.42;100.00;96342.75;4405582;32;20187;-54
2022/10/07 06:31:16;;;;;;;2.50;2.40;;;;;;;14.99;100.00;96343.34;4397099;32;20298;-54
2022/10/07 06:33:41;;;;;;;3.37;3.03;;;;;;;15.20;98.62;96340.28;4388585;32;20188;-55
2022/10/07 06:36:10;;;;;;;2.13;2.03;;;;;;;15.49;92.32;96338.09;4388225;32;20199;-56
2022/10/07 06:38:36;;;;;;;2.80;2.30;;;;;;;15.90;88.97;96337.25;4399369;32;20236;-56
2022/10/07 06:41:03;;;;;;;2.17;2.07;;;;;;;16.15;86.31;96344.72;4398900;32;20188;-56
2022/10/07 06:43:31;;;;;;;3.33;3.13;;;;;;;16.25;84.64;96335.66;4399015;32;20234;-57
2022/10/07 06:45:58;;;;;;;2.43;2.33;;;;;;;16.44;83.00;96337.03;4390987;32;20202;-56
2022/10/07 06:48:25;;;;;;;2.37;2.17;;;;;;;16.39;82.58;96342.53;4397301;32;20183;-56
2022/10/07 06:50:55;;;;;;;2.30;2.20;;;;;;;16.42;82.19;96339.22;4394970;32;20323;-57
2022/10/07 06:53:21;;;;;;;1.97;1.87;;;;;;;16.67;86.52;96339.72;4393322;32;20287;-54
2022/10/07 06:55:50;;;;;;;13.13;3.47;;;;;;;16.85;84.89;96346.75;4385660;32;20185;-57
2022/10/07 06:58:16;;;;;;;3.17;2.97;;;;;;;17.09;83.92;96336.47;4424377;32;20208;-64
2022/10/07 07:00:42;;;;;;;4.63;4.07;;;;;;;16.17;81.13;96350.56;4384181;32;20199;-61
2022/10/07 07:03:09;;;;;;;3.57;3.37;;;;;;;15.65;82.50;96335.94;4398975;32;20185;-63
2022/10/07 07:05:37;;;;;;;3.60;3.30;;;;;;;14.85;85.92;96339.09;4395736;32;20201;-64
2022/10/07 07:08:02;;;;;;;3.57;3.37;;;;;;;14.59;87.81;96339.53;4392039;32;20247;-64
2022/10/07 07:10:27;;;;;;;5.60;5.00;;;;;;;14.10;90.42;96345.38;4396649;32;20237;-63
2022/10/07 07:12:53;;;;;;;3.70;3.50;;;;;;;13.82;92.71;96343.63;4399419;32;20210;-62
2022/10/07 07:15:20;;;;;;;4.20;3.90;;;;;;;13.52;94.54;96345.62;4411894;32;20238;-61
2022/10/07 07:17:46;;;;;;;4.77;4.47;;;;;;;13.47;95.45;96345.72;4398254;32;20259;-61
2022/10/07 07:20:12;;;;;;;4.77;4.57;;;;;;;13.20;96.34;96343.63;4391394;32;20231;-62
2022/10/07 07:22:38;;;;;;;4.50;4.13;;;;;;;13.20;97.15;96345.50;4395852;32;20188;-63
2022/10/07 07:25:03;;;;;;;4.90;4.53;;;;;;;13.09;98.19;96342.91;4412589;32;20184;-63
2022/10/07 07:27:29;;;;;;;6.10;5.57;;;;;;;13.13;98.27;96335.13;4403469;32;20188;-63
2022/10/07 07:29:54;;;;;;;5.53;5.13;;;;;;;13.14;98.42;96339.41;4397425;32;20195;-61
2022/10/07 07:32:20;;;;;;;5.13;4.73;;;;;;;13.09;98.48;96340.22;4395669;32;20299;-61
2022/10/07 07:34:45;;;;;;;4.50;4.20;;;;;;;13.18;98.50;96339.66;4384592;32;20196;-63
2022/10/07 07:37:11;;;;;;;5.50;5.20;;;;;;;13.36;97.70;96342.34;4386650;32;20246;-61
2022/10/07 07:39:37;;;;;;;6.53;5.93;;;;;;;13.20;98.70;96338.28;4391004;32;20061;-63
2022/10/07 07:42:02;;;;;;;6.17;5.57;;;;;;;13.27;98.77;96335.28;4388844;32;20180;-64
2022/10/07 07:44:29;;;;;;;5.40;4.90;;;;;;;13.40;98.07;96339.91;4406581;32;20180;-64
2022/10/07 07:46:55;;;;;;;6.47;5.90;;;;;;;13.24;98.74;96339.31;4396153;32;20192;-62
2022/10/07 07:49:22;;;;;;;5.03;4.63;;;;;;;13.19;99.13;96335.91;4387721;32;20298;-62
2022/10/07 07:51:48;;;;;;;6.87;6.33;;;;;;;13.31;98.70;96337.09;4398266;32;20189;-62
2022/10/07 07:54:14;;;;;;;4.87;4.57;;;;;;;13.26;98.87;96336.38;4400637;32;20299;-62
2022/10/07 07:56:40;;;;;;;4.90;4.50;;;;;;;13.41;98.79;96328.19;4401068;32;20195;-62
2022/10/07 07:59:07;;;;;;;4.93;4.47;;;;;;;13.43;98.43;96325.22;4397833;32;20278;-62
2022/10/07 08:01:34;;;;;;;5.33;4.93;;;;;;;13.59;97.98;96330.06;4390222;32;20200;-63
2022/10/07 08:03:59;;;;;;;4.17;3.87;;;;;;;13.67;97.35;96328.66;4417380;32;20184;-64
2022/10/07 08:06:26;;;;;;;12.20;6.87;;;;;;;13.72;97.33;96328.56;4395997;32;20183;-62
2022/10/07 08:08:55;;;;;;;5.27;4.87;;;;;;;13.79;96.73;96325.53;4391091;32;20192;-63
2022/10/07 08:11:21;;;;;;;6.60;6.13;;;;;;;13.41;97.99;96322.84;4393506;32;20309;-63
2022/10/07 08:13:46;;;;;;;6.70;6.10;;;;;;;13.45;98.17;96321.22;4388227;32;20231;-62
2022/10/07 08:16:15;;;;;;;11.63;5.60;;;;;;;13.46;98.04;96324.66;4395008;32;20177;-63
2022/10/07 08:18:46;;;;;;;5.20;4.87;;;;;;;13.66;97.76;96319.84;4398651;32;20239;-62
2022/10/07 08:21:13;;;;;;;5.33;4.93;;;;;;;13.88;96.62;96323.81;4399049;32;20253;-63
2022/10/07 08:23:40;;;;;;;7.47;5.97;;;;;;;13.91;95.91;96331.25;4408110;32;20243;-63
2022/10/07 08:26:07;;;;;;;5.87;5.47;;;;;;;13.86;95.69;96331.31;4399082;32;20184;-63
2022/10/07 08:28:33;;;;;;;5.40;4.87;;;;;;;13.69;96.08;96331.81;4384264;32;20194;-64
2022/10/07 08:31:04;;;;;;;4.37;4.07;;;;;;;13.65;96.69;96328.94;4395157;32;20230;-62
2022/10/07 08:33:33;;;;;;;5.17;4.87;;;;;;;13.71;96.29;96322.47;4408791;32;20242;-63
2022/10/07 08:36:00;;;;;;;9.07;5.60;;;;;;;13.75;96.53;96326.13;4386115;32;20216;-63
2022/10/07 08:38:35;;;;;;;6.43;5.83;;;;;;;13.68;96.98;96320.37;4408462;32;20192;-63
2022/10/07 08:41:13;;;;;;;5.23;4.83;;;;;;;13.85;96.29;96311.06;4398172;32;20187;-65
2022/10/07 08:43:48;;;;;;;4.67;4.27;;;;;;;13.85;96.01;96316.41;4416604;32;20184;-63
2022/10/07 08:46:21;;;;;;;4.40;4.20;;;;;;;13.65;97.38;96307.59;4397139;32;20222;-62
2022/10/07 08:48:57;;;;;;;5.60;5.20;;;;;;;13.84;96.81;96304.94;4391780;32;20195;-62
2022/10/07 08:51:37;;;;;;;4.60;4.23;;;;;;;13.92;96.25;96303.50;4401841;32;20187;-63
2022/10/07 08:54:04;;;;;;;4.47;4.07;;;;;;;14.21;95.32;96296.09;4408749;32;20199;-66
2022/10/07 08:56:32;;;;;;;4.93;4.63;;;;;;;14.54;94.23;96296.13;4392489;32;20245;-64
2022/10/07 08:59:16;;;;;;;6.57;5.97;;;;;;;14.09;95.16;96296.53;4392704;32;20207;-64
2022/10/07 09:02:04;;;;;;;4.70;4.30;;;;;;;14.00;96.26;96297.47;4381229;32;20234;-63
2022/10/07 09:04:53;;;;;;;5.57;5.17;;;;;;;13.93;96.50;96297.03;4405886;32;20214;-64
2022/10/07 09:07:29;;;;;;;5.50;5.00;;;;;;;14.22;95.87;96287.00;4395560;32;20214;-63
2022/10/07 09:10:04;;;;;;;5.40;4.93;;;;;;;14.34;94.82;96292.66;4393699;32;20289;-64
2022/10/07 09:12:37;;;;;;;4.60;4.33;;;;;;;14.16;95.61;96280.16;4411116;32;20241;-64
2022/10/07 09:15:05;;;;;;;6.63;5.90;;;;;;;14.20;95.71;96281.16;4389675;32;20195;-66
2022/10/07 09:17:36;;;;;;;6.00;5.60;;;;;;;14.14;95.88;96282.31;4386954;32;20223;-64
2022/10/07 09:20:15;;;;;;;3.40;3.20;;;;;;;14.12;96.38;96281.03;4389924;32;20327;-65
2022/10/07 09:22:46;;;;;;;5.00;4.70;;;;;;;14.27;95.81;96286.12;4391351;32;20210;-64
2022/10/07 09:25:12;;;;;;;6.07;5.33;;;;;;;14.20;96.01;96281.16;4393396;32;20243;-61
2022/10/07 09:27:38;;;;;;;5.20;4.67;;;;;;;14.10;96.77;96284.00;4388035;32;20204;-63
2022/10/07 09:30:05;;;;;;;4.57;4.27;;;;;;;14.27;96.06;96278.91;4395674;32;20196;-66
2022/10/07 09:32:31;;;;;;;5.60;5.17;;;;;;;14.18;96.04;96277.97;4396424;32;20212;-64
2022/10/07 09:34:56;;;;;;;5.97;5.47;;;;;;;14.19;96.45;96274.22;4385920;32;20215;-63
2022/10/07 09:37:26;;;;;;;6.40;5.80;;;;;;;14.38;95.80;96266.97;4390366;32;20203;-63
2022/10/07 09:40:20;;;;;;;4.30;4.03;;;;;;;14.43;95.20;96263.44;4398649;32;20201;-63
2022/10/07 09:42:48;;;;;;;3.87;3.60;;;;;;;14.46;95.71;96260.19;4386794;32;20180;-63
2022/10/07 09:45:25;;;;;;;7.37;6.13;;;;;;;14.46;95.49;96262.06;4403581;32;20199;-62
2022/10/07 09:47:53;;;;;;;4.67;4.47;;;;;;;14.34;95.55;96267.84;4383259;32;20283;-63
2022/10/07 09:50:40;;;;;;;5.07;4.77;;;;;;;14.54;95.02;96267.53;4398217;32;20200;-62
2022/10/07 09:53:23;;;;;;;5.07;4.67;;;;;;;14.61;94.84;96269.78;4376631;32;20244;-63
2022/10/07 09:55:51;;;;;;;5.57;5.07;;;;;;;14.62;94.50;96261.50;4393438;32;20215;-62
2022/10/07 09:58:24;;;;;;;5.30;4.67;;;;;;;14.66;94.51;96269.72;4381263;32;20314;-64
2022/10/07 10:00:52;;;;;;;6.27;5.87;;;;;;;14.68;94.64;96259.53;4400561;32;20187;-61
2022/10/07 10:03:18;;;;;;;8.97;5.23;;;;;;;15.01;93.89;96263.66;4397384;32;20188;-62
2022/10/07 10:05:54;;;;;;;6.07;5.57;;;;;;;15.08;92.95;96258.72;4388346;32;20185;-62
2022/10/07 10:08:41;;;;;;;5.63;4.07;;;;;;;15.09;92.33;96257.63;4399496;32;20300;-65
2022/10/07 10:11:18;;;;;;;5.60;5.20;;;;;;;15.18;92.00;96254.25;4395987;32;20199;-62
2022/10/07 10:13:47;;;;;;;4.43;4.23;;;;;;;15.23;92.88;96260.28;4392839;32;20203;-63
2022/10/07 10:16:24;;;;;;;5.70;5.23;;;;;;;15.29;91.93;96247.62;4392679;32;20229;-63
2022/10/07 10:19:23;;;;;;;4.77;4.43;;;;;;;15.25;91.88;96255.44;4404821;32;21473;-63
2022/10/07 10:21:56;;;;;;;5.10;3.57;;;;;;;15.37;91.41;96247.72;4385412;32;20187;-61
2022/10/07 10:27:28;;;;;;;4.97;4.60;;;;;;;15.42;90.96;96250.25;4397536;32;20206;-62
2022/10/07 10:30:02;;;;;;;4.67;4.37;;;;;;;15.57;90.53;96249.16;4396355;32;20198;-62
2022/10/07 10:32:52;;;;;;;4.83;4.63;;;;;;;15.71;89.91;96239.22;4400979;32;20267;-63
2022/10/07 10:35:29;;;;;;;4.90;4.57;;;;;;;15.71;89.67;96233.84;4394267;32;20211;-61
2022/10/07 10:37:58;;;;;;;5.50;5.13;;;;;;;15.51;89.37;96239.62;4400242;32;20286;-62
2022/10/07 10:41:06;;;;;;;3.90;3.70;;;;;;;15.42;90.32;96231.53;4402143;32;20198;-59
2022/10/07 10:43:52;;;;;;;4.10;3.87;;;;;;;15.64;90.45;96217.44;4361842;32;20246;-63
2022/10/07 10:46:33;;;;;;;5.67;5.17;;;;;;;15.79;89.64;96225.09;4386032;32;20185;-62
2022/10/07 10:49:18;;;;;;;5.20;4.90;;;;;;;15.44;89.89;96223.22;4402814;32;20183;-59
2022/10/07 10:52:02;;;;;;;4.90;4.50;;;;;;;15.34;90.63;96218.09;4394933;32;20210;-60
2022/10/07 10:54:49;;;;;;;4.57;4.33;;;;;;;15.48;91.11;96213.50;4401402;32;20210;-62
2022/10/07 10:57:39;;;;;;;4.43;4.13;;;;;;;15.45;91.05;96214.09;4393811;32;20219;-60
2022/10/07 11:00:21;;;;;;;4.17;3.93;;;;;;;15.70;89.80;96208.19;4391425;32;20211;-61
2022/10/07 11:03:15;;;;;;;3.93;3.73;;;;;;;15.73;89.56;96204.13;4396166;32;20187;-61
2022/10/07 11:05:42;;;;;;;5.37;4.93;;;;;;;15.84;88.77;96197.44;4381135;32;20199;-62
2022/10/07 11:08:24;;;;;;;10.47;5.40;;;;;;;15.80;88.65;96189.22;4397253;32;20199;-62
2022/10/07 11:10:57;;;;;;;4.07;3.87;;;;;;;15.81;88.98;96190.78;4401711;32;20233;-61
2022/10/07 11:13:26;;;;;;;4.00;3.70;;;;;;;15.79;89.28;96195.66;4399156;32;20180;-61
2022/10/07 11:16:09;;;;;;;5.07;4.67;;;;;;;15.67;89.91;96191.97;4398914;32;20251;-63
2022/10/07 11:18:44;;;;;;;20.80;6.10;;;;;;;15.70;89.79;96189.47;4389425;32;20220;-62
2022/10/07 11:21:23;;;;;;;4.67;4.23;;;;;;;15.75;89.69;96181.34;4394943;32;20179;-62
2022/10/07 11:24:00;;;;;;;3.47;3.37;;;;;;;15.89;89.69;96175.09;4396229;32;20242;-62
2022/10/07 11:26:55;;;;;;;4.77;4.47;;;;;;;15.83;89.85;96171.75;4384347;32;20188;-64
2022/10/07 11:29:37;;;;;;;4.53;4.23;;;;;;;15.90;89.75;96171.34;4394738;32;20336;-62
2022/10/07 11:32:41;;;;;;;5.83;4.23;;;;;;;15.93;89.82;96162.69;4412761;32;20176;-61
2022/10/07 11:35:32;;;;;;;8.53;4.07;;;;;;;15.96;89.53;96167.44;4370122;32;20239;-60
2022/10/07 11:38:13;;;;;;;5.73;4.00;;;;;;;15.89;89.47;96161.72;4405397;32;20193;-62
2022/10/07 11:40:51;;;;;;;4.73;4.30;;;;;;;15.77;89.29;96160.41;4396190;32;20188;-61
2022/10/07 11:43:32;;;;;;;4.37;4.17;;;;;;;15.79;89.05;96157.44;4397224;32;20200;-62
2022/10/07 11:46:09;;;;;;;4.87;4.47;;;;;;;15.82;89.20;96152.25;4386724;32;20187;-62
2022/10/07 11:49:01;;;;;;;4.57;4.33;;;;;;;15.85;89.14;96142.03;4391837;32;20183;-62
2022/10/07 11:51:34;;;;;;;3.90;3.70;;;;;;;15.97;89.20;96142.25;4395999;32;20200;-62
2022/10/07 11:54:02;;;;;;;3.93;3.67;;;;;;;15.84;89.90;96129.75;4416066;32;20211;-63